Time;durP1;ratioP1;P1;durP2;ratioP2;P2;SDS_P1;SDS_P2;PMS_P1;PMS_P2;Temp;Humidity;BMP_temperature;BMP_pressure;BME280_temperature;BME280_humidity;BME280_pressure;Samples;Min_cycle;Max_cycle;Signal;HPM_P1;HPM_P2
2022/08/22 00:00:13;;;;;;;5.63;5.13;;;;;;;18.16;71.24;98052.16;5042123;28;20033;-85
2022/08/22 00:03:10;;;;;;;6.53;4.80;;;;;;;18.20;71.57;98058.56;5052886;28;20052;-85
2022/08/22 00:06:17;;;;;;;5.00;4.13;;;;;;;18.21;71.71;98044.25;5050195;28;20043;-85
2022/08/22 00:09:10;;;;;;;4.30;3.90;;;;;;;18.34;71.46;98057.13;5057124;28;20041;-86
2022/08/22 00:12:20;;;;;;;5.00;4.07;;;;;;;18.34;71.48;98051.81;5073735;28;20095;-86
2022/08/22 00:15:03;;;;;;;4.20;3.80;;;;;;;18.43;71.09;98060.13;5068024;28;20049;-85
2022/08/22 00:17:51;;;;;;;4.25;3.85;;;;;;;18.46;71.29;98049.81;5041309;28;20044;-86
2022/08/22 00:20:38;;;;;;;4.43;3.95;;;;;;;18.42;69.89;98046.06;5041701;28;20124;-85
2022/08/22 00:23:20;;;;;;;4.53;4.13;;;;;;;18.42;70.06;98054.03;5067644;28;20048;-85
2022/08/22 00:26:01;;;;;;;5.85;4.90;;;;;;;18.29;70.00;98046.47;5049205;28;20178;-85
2022/08/22 00:28:46;;;;;;;4.75;4.35;;;;;;;18.24;70.94;98050.94;5037387;28;20045;-86
2022/08/22 00:31:30;;;;;;;5.35;4.85;;;;;;;18.22;70.42;98053.81;5032506;28;20046;-86
2022/08/22 00:34:11;;;;;;;5.00;4.60;;;;;;;18.10;71.24;98047.84;5065999;28;20060;-86
2022/08/22 00:36:51;;;;;;;5.75;4.80;;;;;;;18.14;71.66;98048.97;5074118;28;20044;-86
2022/08/22 00:39:24;;;;;;;3.63;3.33;;;;;;;18.17;72.59;98043.13;5059918;28;20556;-86
2022/08/22 00:42:15;;;;;;;3.85;3.45;;;;;;;18.28;71.70;98052.81;5040510;28;20463;-86
2022/08/22 00:45:28;;;;;;;3.97;3.67;;;;;;;18.34;71.39;98057.13;5057222;28;20509;-85
2022/08/22 00:48:36;;;;;;;4.93;4.53;;;;;;;18.35;71.43;98053.44;5045971;28;20047;-86
2022/08/22 00:51:15;;;;;;;4.95;4.55;;;;;;;18.36;71.09;98051.59;5046555;28;20124;-87
2022/08/22 00:54:23;;;;;;;3.95;3.65;;;;;;;18.37;71.09;98056.63;5041079;28;20077;-86
2022/08/22 00:57:41;;;;;;;4.57;4.15;;;;;;;18.38;70.68;98057.44;5033154;28;20055;-86
2022/08/22 01:00:15;;;;;;;4.80;4.40;;;;;;;18.39;71.42;98056.38;5046186;28;20051;-86
2022/08/22 01:03:19;;;;;;;4.82;4.40;;;;;;;18.33;71.98;98042.25;5052890;28;20515;-85
2022/08/22 01:06:08;;;;;;;4.93;4.43;;;;;;;18.30;71.35;98050.72;5052261;28;20052;-86
2022/08/22 01:09:00;;;;;;;5.13;4.60;;;;;;;18.27;72.26;98050.41;5056892;28;20090;-85
2022/08/22 01:12:04;;;;;;;5.10;4.60;;;;;;;18.25;72.81;98048.00;5072474;28;20067;-85
2022/08/22 01:14:54;;;;;;;4.43;4.03;;;;;;;18.25;72.48;98042.72;5033436;28;20430;-85
2022/08/22 01:17:38;;;;;;;5.87;5.00;;;;;;;18.20;72.47;98045.31;5033111;28;20072;-86
2022/08/22 01:20:42;;;;;;;5.03;4.55;;;;;;;18.19;73.18;98043.72;5062755;28;20121;-85
2022/08/22 01:23:30;;;;;;;5.65;4.68;;;;;;;18.08;73.27;98042.00;5049334;28;20041;-85
2022/08/22 01:26:44;;;;;;;4.78;4.32;;;;;;;18.04;73.62;98046.19;5031071;28;20057;-85
2022/08/22 01:30:02;;;;;;;5.60;4.72;;;;;;;18.02;73.66;98050.94;5032181;28;20041;-85
2022/08/22 01:32:30;;;;;;;4.70;4.30;;;;;;;17.97;73.73;98048.22;5046995;28;20100;-85
2022/08/22 01:35:50;;;;;;;5.20;4.50;;;;;;;17.94;73.73;98051.41;5045720;28;20382;-85
2022/08/22 01:38:39;;;;;;;4.78;4.05;;;;;;;17.91;74.09;98042.88;5057323;28;20432;-85
2022/08/22 01:41:24;;;;;;;4.85;4.25;;;;;;;17.89;74.01;98050.28;5044245;28;20045;-85
2022/08/22 01:44:20;;;;;;;4.88;4.38;;;;;;;17.85;73.42;98049.16;5063726;28;20043;-85
2022/08/22 01:47:11;;;;;;;5.07;4.68;;;;;;;17.81;73.41;98050.72;5062379;28;20055;-85
2022/08/22 01:49:54;;;;;;;4.97;4.47;;;;;;;17.82;73.65;98052.31;5051374;28;20048;-85
2022/08/22 01:52:45;;;;;;;5.75;4.97;;;;;;;17.76;73.54;98055.16;5033125;28;20505;-85
2022/08/22 01:55:20;;;;;;;4.95;4.45;;;;;;;17.72;74.00;98044.22;5036011;28;20050;-85
2022/08/22 01:58:24;;;;;;;5.03;4.55;;;;;;;17.64;73.98;98047.28;5046642;28;20048;-85
2022/08/22 02:01:18;;;;;;;5.93;5.32;;;;;;;17.65;74.07;98054.19;5052559;28;20025;-85
2022/08/22 02:04:23;;;;;;;5.85;5.32;;;;;;;17.57;74.07;98054.59;5043018;28;20047;-85
2022/08/22 02:07:07;;;;;;;6.50;5.90;;;;;;;17.40;75.07;98052.00;5052961;28;20095;-85
2022/08/22 02:09:37;;;;;;;5.72;5.18;;;;;;;17.38;75.31;98057.53;5061047;28;20029;-85
2022/08/22 02:12:21;;;;;;;5.28;4.78;;;;;;;17.37;75.54;98061.25;5034287;28;20037;-85
2022/08/22 02:15:04;;;;;;;6.60;6.00;;;;;;;17.20;75.44;98060.47;5071300;28;20082;-85
2022/08/22 02:17:47;;;;;;;6.20;5.60;;;;;;;17.15;75.76;98054.28;5066156;28;20482;-84
2022/08/22 02:20:43;;;;;;;7.22;6.53;;;;;;;16.92;76.17;98049.97;5068057;28;20499;-84
2022/08/22 02:23:51;;;;;;;6.85;6.22;;;;;;;16.85;76.96;98052.75;5049353;28;20072;-85
2022/08/22 02:27:06;;;;;;;6.03;5.40;;;;;;;16.80;77.28;98060.66;5013198;28;20804;-85
2022/08/22 02:30:13;;;;;;;5.80;4.68;;;;;;;16.91;77.59;98058.94;5031170;28;20049;-85
2022/08/22 02:32:40;;;;;;;4.75;4.35;;;;;;;17.03;77.20;98064.97;5075739;28;20039;-85
2022/08/22 02:35:46;;;;;;;5.15;4.65;;;;;;;17.11;76.79;98059.28;5039344;28;20403;-85
2022/08/22 02:38:41;;;;;;;5.43;4.88;;;;;;;17.08;76.31;98052.59;5043393;28;20045;-85
2022/08/22 02:41:30;;;;;;;5.45;4.90;;;;;;;17.03;76.84;98059.66;5040840;28;20037;-85
2022/08/22 02:44:25;;;;;;;7.43;6.72;;;;;;;16.97;76.84;98063.28;5046753;28;20576;-84
2022/08/22 02:47:05;;;;;;;6.35;5.05;;;;;;;16.92;77.46;98058.72;5032168;28;20048;-85
2022/08/22 02:49:47;;;;;;;5.25;4.85;;;;;;;16.88;77.13;98054.94;5048178;28;20041;-85
2022/08/22 02:52:32;;;;;;;5.90;5.25;;;;;;;16.91;77.26;98059.75;5032174;28;20662;-85
2022/08/22 02:55:15;;;;;;;5.45;4.95;;;;;;;16.94;77.69;98059.28;5048096;28;20183;-85
2022/08/22 02:58:10;;;;;;;5.07;4.68;;;;;;;16.91;77.04;98053.66;5040669;28;20041;-85
2022/08/22 03:00:49;;;;;;;5.20;4.70;;;;;;;16.96;76.32;98062.47;5052694;28;20513;-85
2022/08/22 03:03:27;;;;;;;5.75;4.80;;;;;;;16.94;76.13;98058.47;5035404;28;20111;-84
2022/08/22 03:06:33;;;;;;;5.50;5.07;;;;;;;16.94;76.03;98061.13;5014534;28;20045;-84
2022/08/22 03:09:06;;;;;;;5.13;4.63;;;;;;;16.95;76.20;98068.03;5051817;28;20123;-85
2022/08/22 03:11:41;;;;;;;5.05;4.55;;;;;;;16.93;76.10;98070.13;5068914;28;20112;-85
2022/08/22 03:14:23;;;;;;;5.18;4.78;;;;;;;16.90;76.08;98062.66;5065297;28;20033;-85
2022/08/22 03:17:04;;;;;;;5.80;5.30;;;;;;;16.87;76.30;98073.75;5036062;28;20041;-85
2022/08/22 03:20:10;;;;;;;5.10;4.60;;;;;;;16.71;76.40;98062.06;5037052;28;20051;-85
2022/08/22 03:22:52;;;;;;;4.78;4.38;;;;;;;16.77;76.65;98061.91;5031564;28;20099;-85
2022/08/22 03:25:36;;;;;;;6.50;5.80;;;;;;;16.81;76.61;98068.34;5070154;28;20037;-85
2022/08/22 03:28:20;;;;;;;5.88;5.38;;;;;;;16.63;77.14;98067.75;5069449;28;20040;-84
2022/08/22 03:30:50;;;;;;;6.20;5.07;;;;;;;16.63;77.48;98073.03;5055016;28;20048;-85
2022/08/22 03:33:23;;;;;;;7.63;6.32;;;;;;;16.52;77.61;98066.75;5049516;28;20041;-85
2022/08/22 03:36:13;;;;;;;6.30;5.70;;;;;;;16.44;78.31;98075.09;5067431;28;20495;-85
2022/08/22 03:39:12;;;;;;;6.00;5.43;;;;;;;16.41;78.62;98075.56;5054380;28;20102;-84
2022/08/22 03:41:57;;;;;;;5.30;4.68;;;;;;;16.42;78.26;98077.16;5044291;28;20080;-85
2022/08/22 03:44:58;;;;;;;5.72;5.22;;;;;;;16.40;78.46;98074.75;5030323;28;20041;-85
2022/08/22 03:48:02;;;;;;;6.75;6.10;;;;;;;16.28;78.38;98077.44;5043110;28;20508;-85
2022/08/22 03:50:58;;;;;;;5.70;5.20;;;;;;;16.24;79.31;98070.22;5054082;28;20045;-85
2022/08/22 03:54:19;;;;;;;5.72;4.95;;;;;;;16.37;78.65;98077.88;5056734;28;20415;-85
2022/08/22 03:57:23;;;;;;;5.78;5.00;;;;;;;16.44;78.32;98078.53;5030446;28;20046;-85
2022/08/22 04:00:03;;;;;;;5.55;5.05;;;;;;;16.50;78.12;98090.03;5054335;28;20037;-84
2022/08/22 04:03:08;;;;;;;6.63;4.65;;;;;;;16.49;78.21;98089.22;5049960;28;20062;-85
2022/08/22 04:05:53;;;;;;;7.45;6.75;;;;;;;16.35;78.04;98092.38;5047308;28;20120;-85
2022/08/22 04:09:07;;;;;;;7.93;7.18;;;;;;;16.13;78.81;98094.88;5034881;28;20051;-85
2022/08/22 04:11:59;;;;;;;7.88;7.07;;;;;;;15.95;79.67;98098.47;5027990;28;20045;-85
2022/08/22 04:14:53;;;;;;;8.05;6.55;;;;;;;15.91;79.97;98102.66;5057420;28;20036;-85
2022/08/22 04:17:51;;;;;;;6.38;5.47;;;;;;;16.03;80.40;98093.66;5062723;28;20464;-84
2022/08/22 04:20:43;;;;;;;6.20;5.60;;;;;;;16.16;79.70;98094.41;5035915;28;20038;-84
2022/08/22 04:23:26;;;;;;;;;;;;;;;16.22;79.47;98098.75;5037958;28;20124;-85
2022/08/22 04:26:09;;;;;;;5.80;5.13;;;;;;;16.23;79.20;98095.06;5047139;28;19924;-85
2022/08/22 04:28:52;;;;;;;5.80;5.20;;;;;;;16.29;78.75;98097.56;5039413;28;20041;-85
2022/08/22 04:31:35;;;;;;;5.47;4.93;;;;;;;16.23;78.63;98087.94;5040756;28;20043;-85
2022/08/22 04:34:40;;;;;;;5.32;4.93;;;;;;;16.22;78.83;98094.28;5045944;28;20374;-86
2022/08/22 04:37:24;;;;;;;5.38;4.88;;;;;;;16.28;78.49;98092.53;5048142;28;20049;-85
2022/08/22 04:40:24;;;;;;;6.47;5.88;;;;;;;16.22;78.27;98106.72;5052226;28;20544;-85
2022/08/22 04:43:01;;;;;;;6.13;5.50;;;;;;;16.23;78.84;98106.47;5042206;28;20033;-85
2022/08/22 04:45:52;;;;;;;5.53;5.03;;;;;;;16.17;78.98;98101.31;5037021;28;20038;-85
2022/08/22 04:48:36;;;;;;;7.28;6.65;;;;;;;16.11;79.00;98108.34;5041497;28;20045;-85
2022/08/22 04:51:32;;;;;;;5.78;5.28;;;;;;;16.11;79.37;98104.91;5065927;28;20061;-85
2022/08/22 04:54:19;;;;;;;5.97;5.30;;;;;;;16.21;79.28;98105.91;5043842;28;20059;-85
2022/08/22 04:57:35;;;;;;;5.78;5.28;;;;;;;16.29;79.02;98102.88;5055444;28;20128;-85
2022/08/22 05:00:09;;;;;;;7.25;5.57;;;;;;;16.30;79.15;98107.13;5071788;28;20049;-85
2022/08/22 05:02:45;;;;;;;6.38;5.70;;;;;;;16.25;78.97;98107.06;5058563;28;20033;-85
2022/08/22 05:05:25;;;;;;;7.00;5.60;;;;;;;16.29;79.06;98110.00;5050649;28;20069;-85
2022/08/22 05:08:00;;;;;;;6.90;6.20;;;;;;;16.25;78.80;98107.06;5041823;28;20103;-85
2022/08/22 05:10:42;;;;;;;5.90;5.40;;;;;;;16.29;78.16;98120.59;5049908;28;20394;-85
2022/08/22 05:13:35;;;;;;;5.57;5.07;;;;;;;16.33;78.15;98117.25;5048151;28;20456;-85
2022/08/22 05:16:13;;;;;;;5.47;5.00;;;;;;;16.33;78.38;98116.44;5047093;28;20044;-85
2022/08/22 05:19:15;;;;;;;5.85;5.20;;;;;;;16.41;78.27;98117.91;5045792;28;20103;-85
2022/08/22 05:21:49;;;;;;;6.55;5.25;;;;;;;16.38;78.18;98123.69;5044446;28;20052;-85
2022/08/22 05:24:43;;;;;;;5.68;5.18;;;;;;;16.35;78.24;98119.66;5055057;28;20121;-85
2022/08/22 05:27:30;;;;;;;5.53;5.03;;;;;;;16.45;78.01;98133.09;5057730;28;20037;-85
2022/08/22 05:30:10;;;;;;;5.80;5.30;;;;;;;16.45;77.72;98140.22;5063664;28;20044;-85
2022/08/22 05:33:11;;;;;;;5.97;5.35;;;;;;;16.47;77.76;98144.25;5031893;28;20128;-85
2022/08/22 05:36:09;;;;;;;6.18;5.50;;;;;;;16.50;77.81;98132.38;5040003;28;20107;-85
2022/08/22 05:38:46;;;;;;;6.13;5.60;;;;;;;16.44;77.47;98128.84;5062628;28;20032;-85
2022/08/22 05:41:22;;;;;;;6.70;6.07;;;;;;;16.51;77.48;98134.00;5072107;28;20410;-85
2022/08/22 05:43:52;;;;;;;6.57;6.03;;;;;;;16.49;77.62;98122.81;5047395;28;20048;-85
2022/08/22 05:46:39;;;;;;;7.47;6.78;;;;;;;16.52;76.66;98139.03;5038161;28;20046;-85
2022/08/22 05:49:17;;;;;;;6.85;6.22;;;;;;;16.40;77.31;98140.13;5033312;28;20057;-84
2022/08/22 05:52:29;;;;;;;6.22;5.47;;;;;;;16.42;78.16;98135.38;5048129;28;20438;-85
2022/08/22 05:55:26;;;;;;;7.95;5.60;;;;;;;16.52;78.01;98138.25;5032309;28;20497;-84
2022/08/22 05:58:32;;;;;;;5.38;4.88;;;;;;;16.63;77.57;98131.28;5036216;28;20155;-84
2022/08/22 06:01:17;;;;;;;5.95;5.32;;;;;;;16.73;77.97;98142.91;5034990;28;20087;-84
2022/08/22 06:04:12;;;;;;;5.78;5.20;;;;;;;16.95;77.83;98142.22;5047698;28;20381;-84
2022/08/22 06:07:03;;;;;;;6.25;4.90;;;;;;;17.03;77.25;98139.16;5054906;28;20404;-84
2022/08/22 06:10:06;;;;;;;7.00;6.30;;;;;;;17.07;76.04;98142.94;5041063;28;20049;-84
2022/08/22 06:13:01;;;;;;;;;;;;;;;;;;;;;
2022/08/22 06:16:06;;;;;;;7.45;6.75;;;;;;;17.05;76.26;98145.03;5058077;28;20037;-86
2022/08/22 06:18:44;;;;;;;6.35;5.75;;;;;;;17.11;77.36;98146.72;5054170;28;20080;-83
2022/08/22 06:21:36;;;;;;;6.15;5.22;;;;;;;17.30;77.40;98147.28;5036068;28;20053;-85
2022/08/22 06:24:24;;;;;;;5.97;5.38;;;;;;;17.46;76.97;98151.00;5048459;28;20052;-86
2022/08/22 06:27:03;;;;;;;6.63;6.03;;;;;;;17.64;75.95;98145.41;5061702;28;20056;-86
2022/08/22 06:29:44;;;;;;;6.75;6.07;;;;;;;17.70;75.97;98160.34;5061758;28;20092;-83
2022/08/22 06:32:47;;;;;;;6.28;5.68;;;;;;;17.83;76.13;98151.28;5042076;28;20052;-85
2022/08/22 06:39:02;;;;;;;9.35;6.20;;;;;;;18.12;75.01;98152.72;5046971;28;20095;-86
2022/08/22 06:41:35;;;;;;;6.95;5.80;;;;;;;18.31;75.35;98150.56;5039263;28;20523;-85
2022/08/22 06:44:06;;;;;;;8.35;6.85;;;;;;;18.42;74.41;98148.81;5036029;28;20115;-86
2022/08/22 06:46:37;;;;;;;5.95;5.45;;;;;;;18.59;74.21;98143.41;5031996;28;20095;-86
2022/08/22 06:49:08;;;;;;;7.30;6.60;;;;;;;18.72;73.43;98148.38;5030847;28;20083;-86
2022/08/22 06:51:38;;;;;;;6.22;5.63;;;;;;;18.87;73.29;98139.75;5041467;28;20726;-86
2022/08/22 06:54:24;;;;;;;6.60;5.90;;;;;;;19.02;73.87;98142.53;5037759;28;20048;-86
2022/08/22 06:56:54;;;;;;;7.90;5.85;;;;;;;19.15;71.99;98138.66;5042012;28;20037;-86
2022/08/22 06:59:37;;;;;;;5.97;5.38;;;;;;;19.31;72.22;98140.38;5032640;28;20051;-86
2022/08/22 07:02:25;;;;;;;7.45;6.40;;;;;;;19.49;71.85;98147.13;5031443;28;20117;-87
2022/08/22 07:04:52;;;;;;;6.00;5.40;;;;;;;19.65;72.30;98145.41;5032854;28;20068;-93
2022/08/22 07:07:25;;;;;;;6.15;5.55;;;;;;;19.65;70.08;98126.78;5035404;28;20098;-87
2022/08/22 07:09:56;;;;;;;7.18;5.80;;;;;;;19.79;69.24;98143.91;5055706;28;20045;-90
2022/08/22 07:12:36;;;;;;;6.55;5.93;;;;;;;19.84;69.71;98148.44;5043174;28;20392;-86
2022/08/22 07:15:35;;;;;;;6.35;5.68;;;;;;;19.99;69.69;98152.00;5041516;28;20088;-87
2022/08/22 07:18:14;;;;;;;7.40;5.80;;;;;;;20.00;68.32;98140.28;5064001;28;20170;-85
2022/08/22 07:20:51;;;;;;;6.78;5.25;;;;;;;20.17;71.21;98142.78;5050290;28;20032;-86
2022/08/22 07:23:43;;;;;;;5.60;4.70;;;;;;;20.40;69.23;98141.53;5035521;28;20048;-86
2022/08/22 07:26:28;;;;;;;5.00;4.50;;;;;;;20.55;67.15;98146.91;5036830;28;20036;-85
2022/08/22 07:29:15;;;;;;;5.40;4.90;;;;;;;20.69;67.50;98138.41;5057126;28;20046;-86
2022/08/22 07:31:59;;;;;;;5.30;4.80;;;;;;;20.90;69.08;98145.38;5054207;28;20416;-87
2022/08/22 07:35:16;;;;;;;6.10;5.60;;;;;;;21.01;64.84;98138.19;5039018;28;20491;-85
2022/08/22 07:37:55;;;;;;;5.75;5.25;;;;;;;21.15;67.01;98141.91;5046505;28;20473;-87
2022/08/22 07:41:04;;;;;;;5.57;5.03;;;;;;;21.22;64.43;98147.78;5043660;28;20045;-86
2022/08/22 07:43:44;;;;;;;5.93;4.35;;;;;;;21.34;63.10;98143.00;5042504;28;20033;-82
2022/08/22 07:46:32;;;;;;;6.65;5.35;;;;;;;21.40;64.49;98143.00;5044951;28;20456;-84
2022/08/22 07:49:20;;;;;;;5.20;4.70;;;;;;;21.55;66.18;98154.47;5044898;28;20052;-85
2022/08/22 07:51:59;;;;;;;4.15;3.75;;;;;;;21.71;63.74;98138.41;5045755;28;20400;-84
2022/08/22 07:54:41;;;;;;;5.97;4.78;;;;;;;21.83;63.31;98146.94;5030096;28;20054;-85
2022/08/22 07:57:27;;;;;;;4.88;4.35;;;;;;;21.98;60.87;98140.75;5038810;28;20049;-84
2022/08/22 07:59:59;;;;;;;6.05;4.35;;;;;;;22.05;62.30;98139.41;5041942;28;20103;-86
2022/08/22 08:02:27;;;;;;;4.30;3.92;;;;;;;22.28;65.22;98137.19;5028785;28;20065;-85
2022/08/22 08:04:59;;;;;;;4.03;3.72;;;;;;;22.38;61.58;98140.63;5053642;28;20492;-84
2022/08/22 08:07:27;;;;;;;;;;;;;;;22.44;57.43;98138.75;5075682;28;20041;-85
2022/08/22 08:10:07;;;;;;;4.00;3.60;;;;;;;22.41;55.13;98129.38;5029801;28;19960;-85
2022/08/22 08:12:47;;;;;;;4.32;3.38;;;;;;;22.58;55.17;98137.03;5059421;28;20037;-86
2022/08/22 08:15:33;;;;;;;2.80;2.60;;;;;;;22.69;53.78;98135.91;5042709;28;20048;-86
2022/08/22 08:18:20;;;;;;;5.63;2.80;;;;;;;22.80;52.70;98133.19;5064360;28;20041;-85
2022/08/22 08:21:03;;;;;;;2.88;2.40;;;;;;;22.87;52.10;98133.69;5035078;28;20050;-82
2022/08/22 08:23:39;;;;;;;2.95;2.55;;;;;;;22.96;50.67;98132.00;5049412;28;20130;-83
2022/08/22 08:26:17;;;;;;;3.83;2.70;;;;;;;23.12;51.65;98141.50;5038051;28;20123;-86
2022/08/22 08:28:50;;;;;;;2.83;2.25;;;;;;;23.32;52.34;98137.06;5034526;28;20116;-85
2022/08/22 08:31:37;;;;;;;4.28;2.72;;;;;;;23.39;48.96;98130.34;5053737;28;20090;-83
2022/08/22 08:34:23;;;;;;;3.20;2.90;;;;;;;23.49;52.15;98129.41;5048315;28;20045;-85
2022/08/22 08:37:21;;;;;;;4.18;2.95;;;;;;;23.58;47.10;98127.75;5054313;28;20090;-84
2022/08/22 08:39:58;;;;;;;4.05;3.22;;;;;;;23.62;48.17;98128.78;5034884;28;20048;-86
2022/08/22 08:46:01;;;;;;;2.97;1.98;;;;;;;23.92;47.10;98126.84;5034583;28;20045;-84
2022/08/22 08:49:06;;;;;;;4.30;2.60;;;;;;;23.95;45.82;98124.41;5028974;28;20041;-83
2022/08/22 08:52:03;;;;;;;2.80;2.28;;;;;;;24.10;47.73;98139.50;5063711;28;20040;-85
2022/08/22 08:55:10;;;;;;;2.95;2.20;;;;;;;24.20;46.08;98131.34;5060302;28;20048;-84
2022/08/22 08:58:47;;;;;;;2.58;2.10;;;;;;;24.24;45.06;98132.38;5068381;28;20507;-83
2022/08/22 09:01:57;;;;;;;2.78;2.40;;;;;;;24.32;46.88;98135.50;5041181;28;20047;-84
2022/08/22 09:05:13;;;;;;;3.40;2.30;;;;;;;24.35;45.08;98132.25;5032641;28;20045;-82
2022/08/22 09:08:26;;;;;;;5.03;2.63;;;;;;;24.33;44.96;98126.38;5032683;28;20049;-84
2022/08/22 09:11:37;;;;;;;3.00;2.03;;;;;;;24.53;45.70;98123.47;5034284;28;20593;-84
2022/08/22 09:14:13;;;;;;;2.83;2.30;;;;;;;24.56;45.19;98120.19;5046775;28;20137;-84
2022/08/22 09:16:45;;;;;;;3.53;2.00;;;;;;;24.74;45.03;98118.59;5044652;28;20041;-83
2022/08/22 09:19:23;;;;;;;3.92;1.90;;;;;;;24.71;44.98;98117.28;5048568;28;20071;-83
2022/08/22 09:22:12;;;;;;;2.63;2.03;;;;;;;24.81;46.51;98111.75;5072336;28;20512;-84
2022/08/22 09:24:47;;;;;;;;;;;;;;;24.77;43.89;98126.84;5039126;28;20151;-84
2022/08/22 09:27:55;;;;;;;4.45;2.20;;;;;;;24.80;45.37;98118.22;5074096;28;19959;-83
2022/08/22 09:30:48;;;;;;;2.25;2.05;;;;;;;24.81;44.46;98119.00;5063042;28;20037;-81
2022/08/22 09:33:48;;;;;;;5.28;2.50;;;;;;;24.72;44.22;98123.44;5031539;28;20064;-82
2022/08/22 09:36:32;;;;;;;3.25;2.38;;;;;;;24.63;45.48;98114.44;5037923;28;20136;-85
2022/08/22 09:39:31;;;;;;;3.47;2.03;;;;;;;24.52;43.22;98119.94;5037161;28;20555;-85
2022/08/22 09:42:18;;;;;;;4.80;2.60;;;;;;;24.59;45.34;98111.56;5050359;28;20044;-86
2022/08/22 09:45:05;;;;;;;2.80;2.00;;;;;;;24.73;46.30;98117.00;5052179;28;20119;-85
2022/08/22 09:47:49;;;;;;;2.28;1.90;;;;;;;24.86;46.66;98118.94;5050592;28;20056;-85
2022/08/22 09:50:23;;;;;;;2.38;2.10;;;;;;;25.00;47.07;98125.13;5049551;28;20044;-84
2022/08/22 09:53:38;;;;;;;2.55;2.10;;;;;;;24.89;44.52;98120.22;5054446;28;20033;-86
2022/08/22 09:56:18;;;;;;;2.40;1.92;;;;;;;24.93;43.89;98118.56;5045571;28;20408;-84
2022/08/22 09:59:05;;;;;;;3.80;2.05;;;;;;;24.85;44.28;98116.56;5048497;28;20046;-83
2022/08/22 10:01:53;;;;;;;3.40;2.10;;;;;;;24.88;44.97;98113.28;5032872;28;20057;-83
2022/08/22 10:04:53;;;;;;;1.98;1.85;;;;;;;24.96;44.27;98110.75;5047676;28;20034;-85
2022/08/22 10:08:06;;;;;;;1.70;1.60;;;;;;;24.88;41.93;98107.91;5036211;28;20516;-86
2022/08/22 10:10:53;;;;;;;2.70;2.30;;;;;;;24.75;44.30;98120.97;5046132;28;20071;-85
2022/08/22 10:13:45;;;;;;;2.75;1.80;;;;;;;24.95;44.18;98121.75;5068507;28;20040;-86
2022/08/22 10:16:52;;;;;;;1.63;1.52;;;;;;;25.14;40.14;98127.13;5071326;28;20045;-83
2022/08/22 10:19:46;;;;;;;2.95;1.92;;;;;;;24.96;40.07;98126.03;5073602;28;20044;-84
2022/08/22 10:22:25;;;;;;;1.95;1.75;;;;;;;25.11;40.17;98125.00;5073810;28;20064;-82
2022/08/22 10:25:39;;;;;;;3.95;2.20;;;;;;;25.05;39.52;98126.97;5074122;28;20040;-86
2022/08/22 10:28:24;;;;;;;2.60;1.80;;;;;;;25.20;40.13;98124.06;5032007;28;20200;-82
2022/08/22 10:30:54;;;;;;;2.45;1.65;;;;;;;25.40;41.99;98130.16;5055500;28;20058;-83
2022/08/22 10:33:32;;;;;;;2.08;1.65;;;;;;;25.48;38.32;98129.47;5071873;28;21506;-84
2022/08/22 10:36:11;;;;;;;2.70;2.40;;;;;;;25.21;38.72;98120.28;5065931;28;20044;-84
2022/08/22 10:38:53;;;;;;;3.15;2.10;;;;;;;25.15;40.05;98118.78;5049933;28;20049;-86
2022/08/22 10:41:32;;;;;;;1.83;1.50;;;;;;;25.27;40.12;98139.78;5070426;28;20079;-84
2022/08/22 10:44:29;;;;;;;1.92;1.80;;;;;;;25.43;40.08;98134.94;5040431;28;20053;-83
2022/08/22 10:47:16;;;;;;;2.20;1.65;;;;;;;25.40;42.34;98122.91;5032894;28;20130;-84
2022/08/22 10:49:55;;;;;;;2.35;1.92;;;;;;;25.42;41.07;98142.19;5043070;28;20051;-83
2022/08/22 10:52:33;;;;;;;3.70;2.00;;;;;;;25.22;40.68;98137.97;5032762;28;20526;-86
2022/08/22 10:55:23;;;;;;;2.03;1.60;;;;;;;25.13;41.98;98139.75;5051623;28;20137;-84
2022/08/22 10:58:14;;;;;;;2.03;1.60;;;;;;;25.40;43.82;98138.22;5058285;28;20044;-83
2022/08/22 11:01:03;;;;;;;3.25;2.50;;;;;;;25.48;41.90;98132.16;5067513;28;20060;-84
2022/08/22 11:04:26;;;;;;;5.50;2.58;;;;;;;25.45;39.76;98127.41;5061893;28;20041;-85
2022/08/22 11:07:40;;;;;;;2.78;1.90;;;;;;;25.63;40.55;98124.63;5047851;28;20532;-85
2022/08/22 11:10:39;;;;;;;2.73;1.80;;;;;;;25.81;40.74;98122.19;5020884;28;20508;-83
2022/08/22 11:13:29;;;;;;;3.17;2.10;;;;;;;25.77;40.34;98122.00;5033071;28;20580;-86
2022/08/22 11:17:27;;;;;;;3.40;2.10;;;;;;;25.70;37.47;98121.56;5031943;28;20103;-84
2022/08/22 11:20:19;;;;;;;3.10;2.10;;;;;;;25.72;37.84;98108.63;5008471;28;20052;-83
2022/08/22 11:23:11;;;;;;;2.88;1.95;;;;;;;25.70;36.58;98104.66;5030807;28;20099;-84
2022/08/22 11:26:19;;;;;;;3.10;1.98;;;;;;;25.87;39.78;98105.69;5047378;28;20048;-85
2022/08/22 11:30:00;;;;;;;2.85;2.10;;;;;;;25.95;37.41;98098.00;5031653;28;20076;-82
2022/08/22 11:33:08;;;;;;;2.75;2.22;;;;;;;25.91;36.20;98095.16;5046715;28;20042;-82
2022/08/22 11:35:53;;;;;;;2.63;2.17;;;;;;;25.98;36.56;98097.44;5069292;28;20492;-83
2022/08/22 11:38:54;;;;;;;2.38;1.90;;;;;;;26.02;35.73;98091.13;5069083;28;20076;-85
2022/08/22 11:41:45;;;;;;;1.83;1.50;;;;;;;26.06;37.19;98085.97;5052036;28;20684;-83
2022/08/22 11:44:31;;;;;;;2.40;1.80;;;;;;;25.97;36.82;98075.13;5030121;28;20045;-83
2022/08/22 11:47:14;;;;;;;2.30;1.83;;;;;;;25.74;37.80;98074.25;5046160;28;20071;-84
2022/08/22 11:50:33;;;;;;;1.85;1.55;;;;;;;25.75;37.93;98081.22;5067063;28;20044;-84
2022/08/22 11:53:39;;;;;;;2.50;1.67;;;;;;;26.06;39.07;98080.59;5057558;28;20067;-83
2022/08/22 11:56:35;;;;;;;2.53;1.95;;;;;;;26.06;36.84;98076.00;5031333;28;20037;-83
2022/08/22 11:59:31;;;;;;;1.83;1.70;;;;;;;26.27;35.85;98060.25;5049687;28;20402;-83
2022/08/22 12:02:50;;;;;;;1.73;1.60;;;;;;;26.37;37.63;98065.38;5038715;28;20398;-84
2022/08/22 12:05:46;;;;;;;2.35;1.70;;;;;;;26.23;39.12;98069.22;5014792;28;20057;-83
2022/08/22 12:08:51;;;;;;;3.53;2.00;;;;;;;26.16;37.97;98075.00;5050340;28;20045;-83
2022/08/22 12:11:45;;;;;;;1.60;1.50;;;;;;;26.30;37.30;98059.63;5050315;28;20508;-83
2022/08/22 12:14:41;;;;;;;2.20;1.75;;;;;;;26.57;35.82;98058.78;5060340;28;20040;-85
2022/08/22 12:17:23;;;;;;;1.63;1.52;;;;;;;26.80;37.35;98056.09;5041304;28;20041;-84
2022/08/22 12:20:31;;;;;;;2.47;1.73;;;;;;;26.83;34.53;98050.91;5054409;28;20249;-85
2022/08/22 12:23:40;;;;;;;2.63;1.92;;;;;;;27.02;34.06;98033.75;5069894;28;20110;-86
2022/08/22 12:26:53;;;;;;;2.40;1.80;;;;;;;27.19;33.29;98031.19;5046735;28;20073;-87
2022/08/22 12:29:56;;;;;;;2.22;1.50;;;;;;;27.43;35.92;98028.91;5048693;28;20041;-84
2022/08/22 12:33:19;;;;;;;3.15;1.70;;;;;;;27.47;33.83;98026.41;5052252;28;20041;-84
2022/08/22 12:36:14;;;;;;;2.03;1.80;;;;;;;27.37;33.44;98027.47;5041872;28;20045;-86
2022/08/22 12:39:05;;;;;;;2.10;1.80;;;;;;;27.34;33.90;98032.66;5034725;28;20045;-86
2022/08/22 12:41:44;;;;;;;3.35;2.00;;;;;;;27.32;34.23;98024.91;5049216;28;20547;-84
2022/08/22 12:44:27;;;;;;;;;;;;;;;27.43;33.41;98026.22;5047943;28;20051;-86
2022/08/22 12:47:31;;;;;;;1.20;1.10;;;;;;;27.46;37.22;98025.59;5043114;28;19971;-83
2022/08/22 12:50:27;;;;;;;2.15;1.52;;;;;;;27.50;34.80;98020.38;5045808;28;20095;-86
2022/08/22 12:53:22;;;;;;;2.22;1.50;;;;;;;27.47;35.32;98016.44;5042287;28;20084;-84
2022/08/22 12:56:02;;;;;;;1.73;1.30;;;;;;;27.71;34.83;98017.97;5036930;28;20041;-86
2022/08/22 12:58:59;;;;;;;3.67;1.38;;;;;;;27.91;33.91;98020.03;5052893;28;20048;-85
2022/08/22 13:01:41;;;;;;;2.38;1.90;;;;;;;27.54;31.88;98009.78;5057596;28;20383;-83
2022/08/22 13:04:33;;;;;;;1.50;1.40;;;;;;;27.72;32.12;98022.22;5067940;28;20037;-86
2022/08/22 13:07:04;;;;;;;1.77;1.48;;;;;;;27.68;34.67;98010.47;5044419;28;20053;-85
2022/08/22 13:09:38;;;;;;;1.73;1.40;;;;;;;28.02;35.91;98000.88;5043122;28;20041;-85
2022/08/22 13:12:46;;;;;;;2.80;1.73;;;;;;;28.07;31.78;98006.09;5043591;28;20488;-86
2022/08/22 13:15:41;;;;;;;2.35;1.85;;;;;;;27.99;31.97;98000.38;5039399;28;20152;-86
2022/08/22 13:18:25;;;;;;;1.80;1.42;;;;;;;28.32;33.58;97999.97;5036634;28;20449;-85
2022/08/22 13:21:02;;;;;;;2.83;1.38;;;;;;;28.72;31.17;98018.66;5049483;28;20121;-86
2022/08/22 13:23:45;;;;;;;2.88;1.70;;;;;;;28.72;30.30;97995.16;5043420;28;20631;-86
2022/08/22 13:26:19;;;;;;;1.40;1.30;;;;;;;29.48;30.02;98007.97;5071449;28;20040;-87
2022/08/22 13:29:19;;;;;;;1.10;1.00;;;;;;;31.16;29.72;97995.97;5073648;28;20036;-84
2022/08/22 13:31:59;;;;;;;1.92;1.13;;;;;;;32.95;30.03;98002.09;5040322;28;20064;-84